createdAt,value
2022-08-08T00:00:51.091Z,14.40
2022-08-08T00:03:13.335Z,14.53
2022-08-08T00:06:28.435Z,14.56
2022-08-08T00:09:45.576Z,14.60
2022-08-08T00:12:30.842Z,14.45
2022-08-08T00:15:17.687Z,14.52
2022-08-08T00:18:05.488Z,14.43
2022-08-08T00:20:55.869Z,14.26
2022-08-08T00:23:55.013Z,14.29
2022-08-08T00:26:45.118Z,14.25
2022-08-08T00:29:44.822Z,14.35
2022-08-08T00:32:35.190Z,14.28
2022-08-08T00:35:20.553Z,14.22
2022-08-08T00:38:01.464Z,14.25
2022-08-08T00:41:07.127Z,14.22
2022-08-08T00:43:58.807Z,14.24
2022-08-08T00:47:23.166Z,14.02
2022-08-08T00:50:48.097Z,13.95
2022-08-08T00:53:29.603Z,13.83
2022-08-08T00:56:29.506Z,13.67
2022-08-08T00:59:09.147Z,13.63
2022-08-08T01:01:55.547Z,13.66
2022-08-08T01:05:42.448Z,13.59
2022-08-08T01:08:53.884Z,13.56
2022-08-08T01:11:57.223Z,13.56
2022-08-08T01:14:53.238Z,13.47
2022-08-08T01:18:25.008Z,13.40
2022-08-08T01:21:34.653Z,13.37
2022-08-08T01:24:56.919Z,13.42
2022-08-08T01:28:08.581Z,13.37
2022-08-08T01:32:02.963Z,13.32
2022-08-08T01:34:37.651Z,13.29
2022-08-08T01:37:57.269Z,13.22
2022-08-08T01:40:54.205Z,13.03
2022-08-08T01:43:39.984Z,13.03
2022-08-08T01:46:40.064Z,13.07
2022-08-08T01:49:38.545Z,13.01
2022-08-08T01:54:04.681Z,13.13
2022-08-08T01:56:30.051Z,13.05
2022-08-08T01:59:38.302Z,13.01
2022-08-08T02:02:52.054Z,12.92
2022-08-08T02:06:01.003Z,12.92
2022-08-08T02:09:18.810Z,12.90
2022-08-08T02:12:21.424Z,12.73
2022-08-08T02:15:17.362Z,12.78
2022-08-08T02:18:00.802Z,12.83
2022-08-08T02:21:08.481Z,12.78
2022-08-08T02:23:49.719Z,12.72
2022-08-08T02:26:43.817Z,12.78
2022-08-08T02:29:51.885Z,12.89
2022-08-08T02:32:37.497Z,12.93
2022-08-08T02:36:04.841Z,12.84
2022-08-08T02:38:44.799Z,12.75
2022-08-08T02:41:59.048Z,12.72
2022-08-08T02:44:57.986Z,12.68
2022-08-08T02:48:03.090Z,12.68
2022-08-08T02:50:55.727Z,12.72
2022-08-08T02:53:47.912Z,12.67
2022-08-08T02:56:36.580Z,12.63
2022-08-08T02:59:36.987Z,12.58
2022-08-08T03:02:51.883Z,12.54
2022-08-08T03:06:12.763Z,12.49
2022-08-08T03:09:41.394Z,12.35
2022-08-08T03:13:02.403Z,12.22
2022-08-08T03:16:05.836Z,12.19
2022-08-08T03:18:54.911Z,12.21
2022-08-08T03:21:26.815Z,12.24
2022-08-08T03:24:08.542Z,12.29
2022-08-08T03:26:49.956Z,12.30
2022-08-08T03:29:26.955Z,12.29
2022-08-08T03:32:29.230Z,12.28
2022-08-08T03:34:57.525Z,12.31
2022-08-08T03:38:00.276Z,12.25
2022-08-08T03:40:30.026Z,12.34
2022-08-08T03:43:16.337Z,12.24
2022-08-08T03:46:06.417Z,12.30
2022-08-08T03:49:09.528Z,12.30
2022-08-08T03:51:35.431Z,12.31
2022-08-08T03:54:09.305Z,12.30
2022-08-08T03:56:36.184Z,12.33
2022-08-08T03:59:03.671Z,12.17
2022-08-08T04:02:32.829Z,12.19
2022-08-08T04:05:19.226Z,12.18
2022-08-08T04:07:46.665Z,12.06
2022-08-08T04:10:17.106Z,12.04
2022-08-08T04:12:44.541Z,12.08
2022-08-08T04:15:12.933Z,11.97
2022-08-08T04:17:57.807Z,11.90
2022-08-08T04:20:28.169Z,11.89
2022-08-08T04:22:58.247Z,11.94
2022-08-08T04:25:29.700Z,11.94
2022-08-08T04:28:10.696Z,11.96
2022-08-08T04:30:44.439Z,11.99
2022-08-08T04:33:12.383Z,12.02
2022-08-08T04:35:51.192Z,11.88
2022-08-08T04:38:21.404Z,12.10
2022-08-08T04:40:53.969Z,11.98
2022-08-08T04:43:31.539Z,12.00
2022-08-08T04:46:10.145Z,11.99
2022-08-08T04:48:36.928Z,11.91
2022-08-08T04:51:04.766Z,11.89
2022-08-08T04:54:37.176Z,11.90
2022-08-08T04:56:18.997Z,11.86
2022-08-08T04:58:46.183Z,11.93
2022-08-08T05:01:15.315Z,11.97
2022-08-08T05:04:09.077Z,11.96
2022-08-08T05:06:29.546Z,12.09
2022-08-08T05:09:02.219Z,12.08
2022-08-08T05:11:38.672Z,11.98
2022-08-08T05:14:06.460Z,12.05
2022-08-08T05:16:52.410Z,12.09
2022-08-08T05:20:11.853Z,12.11
2022-08-08T05:22:10.338Z,12.16
2022-08-08T05:24:38.603Z,12.19
2022-08-08T05:27:06.957Z,12.21
2022-08-08T05:29:36.015Z,12.30
2022-08-08T05:32:07.745Z,12.30
2022-08-08T05:34:53.827Z,12.37
2022-08-08T05:37:39.112Z,12.37
2022-08-08T05:40:14.711Z,12.36
2022-08-08T05:42:54.073Z,12.48
2022-08-08T05:45:25.448Z,12.60
2022-08-08T05:48:08.605Z,12.68
2022-08-08T05:50:38.725Z,12.76
2022-08-08T05:53:54.772Z,12.77
2022-08-08T05:56:07.943Z,12.79
2022-08-08T05:58:56.952Z,12.97
2022-08-08T06:01:51.230Z,13.05
2022-08-08T06:04:23.020Z,13.11
2022-08-08T06:06:53.851Z,13.28
2022-08-08T06:09:59.881Z,13.42
2022-08-08T06:12:30.268Z,13.53
2022-08-08T06:15:02.698Z,13.67
2022-08-08T06:18:18.561Z,13.81
2022-08-08T06:20:23.105Z,13.91
2022-08-08T06:22:53.716Z,14.22
2022-08-08T06:26:35.760Z,14.36
2022-08-08T06:28:33.798Z,14.59
2022-08-08T06:31:09.499Z,14.78
2022-08-08T06:34:27.778Z,14.96
2022-08-08T06:36:57.307Z,15.08
2022-08-08T06:39:33.296Z,15.22
2022-08-08T06:42:02.946Z,15.38
2022-08-08T06:44:30.799Z,15.62
2022-08-08T06:47:00.021Z,15.76
2022-08-08T06:49:56.881Z,15.84
2022-08-08T06:52:16.136Z,15.96
2022-08-08T06:54:44.379Z,16.09
2022-08-08T06:57:15.906Z,16.23
2022-08-08T07:00:12.612Z,16.33
2022-08-08T07:02:33.707Z,16.56
2022-08-08T07:05:06.942Z,16.81
2022-08-08T07:08:06.531Z,17.03
2022-08-08T07:10:48.982Z,17.32
2022-08-08T07:13:18.995Z,17.72
2022-08-08T07:16:04.635Z,18.03
2022-08-08T07:18:57.846Z,18.21
2022-08-08T07:21:31.179Z,18.59
2022-08-08T07:24:03.594Z,18.75
2022-08-08T07:26:35.546Z,18.77
2022-08-08T07:29:07.970Z,19.04
2022-08-08T07:31:36.820Z,19.23
2022-08-08T07:34:08.625Z,19.16
2022-08-08T07:36:48.160Z,19.39
2022-08-08T07:39:29.679Z,19.73
2022-08-08T07:42:04.433Z,20.01
2022-08-08T07:44:37.245Z,19.95
2022-08-08T07:47:08.844Z,19.98
2022-08-08T07:49:39.909Z,20.21
2022-08-08T07:52:23.227Z,20.15
2022-08-08T07:55:17.401Z,20.39
2022-08-08T07:58:25.422Z,20.73
2022-08-08T08:00:59.936Z,20.95
2022-08-08T08:03:46.325Z,21.06
2022-08-08T08:06:16.349Z,21.00
2022-08-08T08:08:57.453Z,21.26
2022-08-08T08:11:33.578Z,21.30
2022-08-08T08:14:10.668Z,21.25
2022-08-08T08:16:41.570Z,21.55
2022-08-08T08:19:18.074Z,21.54
2022-08-08T08:21:57.525Z,21.63
2022-08-08T08:24:32.166Z,21.91
2022-08-08T08:27:02.922Z,22.01
2022-08-08T08:29:31.114Z,22.14
2022-08-08T08:32:03.428Z,22.03
2022-08-08T08:34:33.682Z,22.12
2022-08-08T08:37:08.270Z,22.32
2022-08-08T08:40:00.547Z,22.13
2022-08-08T08:42:31.879Z,22.12
2022-08-08T08:45:20.797Z,22.32
2022-08-08T08:47:52.989Z,22.49
2022-08-08T08:50:33.851Z,22.43
2022-08-08T08:53:27.787Z,22.41
2022-08-08T08:56:01.439Z,22.42
2022-08-08T09:01:10.302Z,22.64
2022-08-08T09:03:47.404Z,22.83
2022-08-08T09:06:50.026Z,23.02
2022-08-08T09:09:35.413Z,23.18
2022-08-08T09:12:10.907Z,23.38
2022-08-08T09:14:42.859Z,23.25
2022-08-08T09:17:18.257Z,23.62
2022-08-08T09:22:01.475Z,23.62
2022-08-08T09:22:36.173Z,23.94
2022-08-08T09:25:07.534Z,23.91
2022-08-08T09:27:56.371Z,23.69
2022-08-08T09:30:26.955Z,23.80
2022-08-08T09:33:12.510Z,23.86
2022-08-08T09:35:50.299Z,24.05
2022-08-08T09:38:58.326Z,24.04
2022-08-08T09:42:14.613Z,24.15
2022-08-08T09:45:15.286Z,23.95
2022-08-08T09:48:04.129Z,24.08
2022-08-08T09:50:32.405Z,24.54
2022-08-08T09:53:24.441Z,24.60
2022-08-08T09:56:03.524Z,24.42
2022-08-08T09:58:40.590Z,24.65
2022-08-08T10:01:15.302Z,24.50
2022-08-08T10:04:04.672Z,24.61
2022-08-08T10:06:32.903Z,24.73
2022-08-08T10:09:03.443Z,24.78
2022-08-08T10:12:26.083Z,24.57
2022-08-08T10:14:28.184Z,24.46
2022-08-08T10:17:57.266Z,24.37
2022-08-08T10:20:00.745Z,24.54
2022-08-08T10:22:33.312Z,24.72
2022-08-08T10:25:15.723Z,24.73
2022-08-08T10:27:43.963Z,24.56
2022-08-08T10:30:16.689Z,24.57
2022-08-08T10:33:00.827Z,24.86
2022-08-08T10:36:07.654Z,25.33
2022-08-08T10:38:20.285Z,25.37
2022-08-08T10:40:53.246Z,25.43
2022-08-08T10:43:22.909Z,25.49
2022-08-08T10:45:57.203Z,25.55
2022-08-08T10:48:57.530Z,25.42
2022-08-08T10:51:31.453Z,25.47
2022-08-08T10:54:24.976Z,25.49
2022-08-08T10:56:59.760Z,25.59
2022-08-08T10:59:27.309Z,25.48
2022-08-08T11:01:58.335Z,25.52
2022-08-08T11:04:38.741Z,25.95
2022-08-08T11:07:07.441Z,25.80
2022-08-08T11:09:47.234Z,25.89
2022-08-08T11:12:14.713Z,25.64
2022-08-08T11:15:02.694Z,25.73
2022-08-08T11:18:00.211Z,25.99
2022-08-08T11:20:28.088Z,26.38
2022-08-08T11:22:59.104Z,26.65
2022-08-08T11:25:51.962Z,26.59
2022-08-08T11:28:29.785Z,27.17
2022-08-08T11:31:00.995Z,26.84
2022-08-08T11:33:53.501Z,26.77
2022-08-08T11:36:20.941Z,26.65
2022-08-08T11:38:53.952Z,26.69
2022-08-08T11:41:28.212Z,26.75
2022-08-08T11:44:00.943Z,26.67
2022-08-08T11:46:32.519Z,26.66
2022-08-08T11:49:05.073Z,26.48
2022-08-08T11:51:39.634Z,26.39
2022-08-08T11:54:31.428Z,26.24
2022-08-08T11:57:27.131Z,26.35
2022-08-08T12:00:06.939Z,26.99
2022-08-08T12:02:48.024Z,27.13
2022-08-08T12:05:18.309Z,26.99
2022-08-08T12:07:54.226Z,27.11
2022-08-08T12:10:28.828Z,26.96
2022-08-08T12:13:09.514Z,27.21
2022-08-08T12:15:46.992Z,27.31
2022-08-08T12:18:25.263Z,27.49
2022-08-08T12:20:59.554Z,27.50
2022-08-08T12:23:43.034Z,27.40
2022-08-08T12:26:27.863Z,27.57
2022-08-08T12:29:21.974Z,27.41
2022-08-08T12:32:04.365Z,27.51
2022-08-08T12:35:00.916Z,27.96
2022-08-08T12:37:41.524Z,28.04
2022-08-08T12:40:24.037Z,28.11
2022-08-08T12:42:52.820Z,28.11
2022-08-08T12:46:00.055Z,28.32
2022-08-08T12:48:37.914Z,28.69
2022-08-08T12:51:07.807Z,28.69
2022-08-08T12:53:59.500Z,28.73
2022-08-08T12:56:53.490Z,28.70
2022-08-08T12:59:36.800Z,28.59
2022-08-08T13:02:28.373Z,28.68
2022-08-08T13:04:58.856Z,28.92
2022-08-08T13:08:04.466Z,29.02
2022-08-08T13:10:32.955Z,29.25
2022-08-08T13:13:05.882Z,29.03
2022-08-08T13:15:36.057Z,29.15
2022-08-08T13:18:11.583Z,29.30
2022-08-08T13:20:48.788Z,28.93
2022-08-08T13:23:37.088Z,29.34
2022-08-08T13:26:14.816Z,29.19
2022-08-08T13:28:42.846Z,29.40
2022-08-08T13:31:16.332Z,29.35
2022-08-08T13:33:49.847Z,29.12
2022-08-08T13:36:25.914Z,29.30
2022-08-08T13:38:54.213Z,29.19
2022-08-08T13:41:22.387Z,29.24
2022-08-08T13:43:51.123Z,29.23
2022-08-08T13:46:27.352Z,29.52
2022-08-08T13:49:11.890Z,29.90
2022-08-08T13:51:55.494Z,30.41
2022-08-08T13:54:29.577Z,30.63
2022-08-08T13:57:14.826Z,30.70
2022-08-08T13:59:49.652Z,30.95
2022-08-08T14:02:32.734Z,31.15
2022-08-08T14:05:20.178Z,31.07
2022-08-08T14:07:53.087Z,31.07
2022-08-08T14:10:33.543Z,31.11
2022-08-08T14:13:20.798Z,31.09
2022-08-08T14:16:04.664Z,31.33
2022-08-08T14:18:53.398Z,31.35
2022-08-08T14:21:22.780Z,31.74
2022-08-08T14:24:06.652Z,32.25
2022-08-08T14:26:46.130Z,32.30
2022-08-08T14:29:28.785Z,32.16
2022-08-08T14:32:12.721Z,32.16
2022-08-08T14:34:43.642Z,32.21
2022-08-08T14:37:19.819Z,32.95
2022-08-08T14:40:06.744Z,33.32
2022-08-08T14:42:55.193Z,33.73
2022-08-08T14:45:33.575Z,34.14
2022-08-08T14:48:17.895Z,33.67
2022-08-08T14:51:06.869Z,34.06
2022-08-08T14:53:54.551Z,34.95
2022-08-08T14:56:27.181Z,36.15
2022-08-08T14:58:56.323Z,36.60
2022-08-08T15:01:37.675Z,36.94
2022-08-08T15:04:09.687Z,36.62
2022-08-08T15:06:37.533Z,36.01
2022-08-08T15:09:07.138Z,35.28
2022-08-08T15:11:42.955Z,35.54
2022-08-08T15:14:14.261Z,36.31
2022-08-08T15:16:44.517Z,36.04
2022-08-08T15:19:11.680Z,35.58
2022-08-08T15:21:43.194Z,34.89
2022-08-08T15:24:13.774Z,34.72
2022-08-08T15:26:41.945Z,35.35
2022-08-08T15:29:08.888Z,35.36
2022-08-08T15:32:03.867Z,34.27
2022-08-08T15:34:31.419Z,33.46
2022-08-08T15:37:02.207Z,32.78
2022-08-08T15:39:38.532Z,32.77
2022-08-08T15:42:13.464Z,33.13
2022-08-08T15:44:55.280Z,32.28
2022-08-08T15:47:23.498Z,31.56
2022-08-08T15:49:50.730Z,30.95
2022-08-08T15:52:22.637Z,30.56
2022-08-08T15:54:52.798Z,30.06
2022-08-08T15:57:21.710Z,29.93
2022-08-08T16:00:05.469Z,29.87
2022-08-08T16:02:36.565Z,29.74
2022-08-08T16:05:13.579Z,29.80
2022-08-08T16:07:51.266Z,29.62
2022-08-08T16:13:04.844Z,29.59
2022-08-08T16:13:33.423Z,29.37
2022-08-08T16:16:08.984Z,28.97
2022-08-08T16:18:43.713Z,28.60
2022-08-08T16:21:26.930Z,28.56
2022-08-08T16:23:56.247Z,28.45
2022-08-08T16:26:34.194Z,28.51
2022-08-08T16:29:09.068Z,28.48
2022-08-08T16:31:40.427Z,28.61
2022-08-08T16:34:07.668Z,28.41
2022-08-08T16:36:36.525Z,28.44
2022-08-08T16:39:09.870Z,28.44
2022-08-08T16:41:53.127Z,28.51
2022-08-08T16:44:27.601Z,28.29
2022-08-08T16:47:39.803Z,28.09
2022-08-08T16:50:16.778Z,28.10
2022-08-08T16:55:06.009Z,27.61
2022-08-08T16:55:55.387Z,27.53
2022-08-08T16:58:31.607Z,27.17
2022-08-08T17:01:04.153Z,27.13
2022-08-08T17:03:58.646Z,26.83
2022-08-08T17:06:36.737Z,26.82
2022-08-08T17:09:06.599Z,26.86
2022-08-08T17:11:39.348Z,26.98
2022-08-08T17:14:19.114Z,26.87
2022-08-08T17:16:51.728Z,26.80
2022-08-08T17:19:25.272Z,26.62
2022-08-08T17:21:52.028Z,26.55
2022-08-08T17:24:27.652Z,26.63
2022-08-08T17:26:58.068Z,26.52
2022-08-08T17:29:27.388Z,26.43
2022-08-08T17:31:57.675Z,26.24
2022-08-08T17:34:53.906Z,26.08
2022-08-08T17:37:13.652Z,26.24
2022-08-08T17:40:04.868Z,26.17
2022-08-08T17:42:28.517Z,26.21
2022-08-08T17:44:55.581Z,25.96
2022-08-08T17:47:28.218Z,25.97
2022-08-08T17:50:01.568Z,26.03
2022-08-08T17:52:34.155Z,25.93
2022-08-08T17:55:05.406Z,25.87
2022-08-08T17:57:36.346Z,25.91
2022-08-08T18:00:13.134Z,25.71
2022-08-08T18:03:04.884Z,25.57
2022-08-08T18:05:49.372Z,25.56
2022-08-08T18:08:38.274Z,25.48
2022-08-08T18:11:16.905Z,25.53
2022-08-08T18:13:50.092Z,25.42
2022-08-08T18:16:22.932Z,25.37
2022-08-08T18:18:56.364Z,25.23
2022-08-08T18:22:00.079Z,25.38
2022-08-08T18:24:22.234Z,25.14
2022-08-08T18:26:56.083Z,25.27
2022-08-08T18:29:34.054Z,25.06
2022-08-08T18:32:08.273Z,24.72
2022-08-08T18:34:37.770Z,24.68
2022-08-08T18:37:07.887Z,24.42
2022-08-08T18:39:42.064Z,24.54
2022-08-08T18:42:14.331Z,24.40
2022-08-08T18:44:54.863Z,24.12
2022-08-08T18:47:27.079Z,23.82
2022-08-08T18:49:58.329Z,23.58
2022-08-08T18:52:27.684Z,23.47
2022-08-08T18:54:59.162Z,23.49
2022-08-08T18:57:32.003Z,23.13
2022-08-08T19:00:10.669Z,22.88
2022-08-08T19:02:56.136Z,22.91
2022-08-08T19:05:34.891Z,22.61
2022-08-08T19:08:29.262Z,22.63
2022-08-08T19:10:59.124Z,22.53
2022-08-08T19:13:53.835Z,22.25
2022-08-08T19:16:19.415Z,21.91
2022-08-08T19:18:57.698Z,21.81
2022-08-08T19:21:32.863Z,21.77
2022-08-08T19:24:05.706Z,21.50
2022-08-08T19:26:37.598Z,21.59
2022-08-08T19:29:06.329Z,21.33
2022-08-08T19:31:50.884Z,21.16
2022-08-08T19:34:35.635Z,20.97
2022-08-08T19:37:06.908Z,20.92
2022-08-08T19:39:45.539Z,20.76
2022-08-08T19:42:17.013Z,20.50
2022-08-08T19:44:50.325Z,20.66
2022-08-08T19:47:33.725Z,20.34
2022-08-08T19:50:02.586Z,20.14
2022-08-08T19:52:37.140Z,20.21
2022-08-08T19:55:14.601Z,19.67
2022-08-08T19:57:45.369Z,19.73
2022-08-08T20:00:29.978Z,19.84
2022-08-08T20:03:00.774Z,19.89
2022-08-08T20:06:15.204Z,19.69
2022-08-08T20:08:27.918Z,19.30
2022-08-08T20:10:59.994Z,18.83
2022-08-08T20:14:33.568Z,18.73
2022-08-08T20:16:15.553Z,18.93
2022-08-08T20:18:52.787Z,18.87
2022-08-08T20:21:25.359Z,18.79
2022-08-08T20:23:57.597Z,18.70
2022-08-08T20:26:30.270Z,18.81
2022-08-08T20:29:03.104Z,18.67
2022-08-08T20:32:07.723Z,18.66
2022-08-08T20:34:28.672Z,18.68
2022-08-08T20:36:58.843Z,18.37
2022-08-08T20:39:33.661Z,18.12
2022-08-08T20:42:01.043Z,17.55
2022-08-08T20:44:27.977Z,17.81
2022-08-08T20:46:54.839Z,17.83
2022-08-08T20:49:22.271Z,17.80
2022-08-08T20:51:59.401Z,17.86
2022-08-08T20:54:28.155Z,17.60
2022-08-08T20:57:04.352Z,17.81
2022-08-08T20:59:43.531Z,17.62
2022-08-08T21:02:12.577Z,17.74
2022-08-08T21:04:43.707Z,17.57
2022-08-08T21:07:16.937Z,17.23
2022-08-08T21:10:13.023Z,17.00
2022-08-08T21:12:41.426Z,16.83
2022-08-08T21:15:16.152Z,17.09
2022-08-08T21:17:45.080Z,17.00
2022-08-08T21:20:22.898Z,16.82
2022-08-08T21:23:10.025Z,16.48
2022-08-08T21:25:40.200Z,16.94
2022-08-08T21:28:15.213Z,16.76
2022-08-08T21:30:49.505Z,16.32
2022-08-08T21:33:18.770Z,16.23
2022-08-08T21:36:16.798Z,16.28
2022-08-08T21:38:34.072Z,16.04
2022-08-08T21:41:00.949Z,15.95
2022-08-08T21:43:33.803Z,15.74
2022-08-08T21:48:02.089Z,16.22
2022-08-08T21:48:58.362Z,16.00
2022-08-08T21:54:17.480Z,15.94
2022-08-08T21:54:34.545Z,16.15
2022-08-08T21:57:10.214Z,16.00
2022-08-08T22:00:01.699Z,16.01
2022-08-08T22:02:38.086Z,15.73
2022-08-08T22:05:09.878Z,15.57
2022-08-08T22:07:52.689Z,15.61
2022-08-08T22:10:32.341Z,15.29
2022-08-08T22:13:17.152Z,15.43
2022-08-08T22:15:59.747Z,15.59
2022-08-08T22:18:33.182Z,15.54
2022-08-08T22:21:14.484Z,15.67
2022-08-08T22:23:53.510Z,15.62
2022-08-08T22:26:28.845Z,15.50
2022-08-08T22:29:03.986Z,15.11
2022-08-08T22:31:42.105Z,15.07
2022-08-08T22:34:13.882Z,15.01
2022-08-08T22:36:43.055Z,14.94
2022-08-08T22:39:18.795Z,15.03
2022-08-08T22:41:46.174Z,15.12
2022-08-08T22:44:16.500Z,15.39
2022-08-08T22:46:51.518Z,15.32
2022-08-08T22:49:20.204Z,15.11
2022-08-08T22:51:47.465Z,15.19
2022-08-08T22:54:30.205Z,14.84
2022-08-08T22:57:08.627Z,15.08
2022-08-08T22:59:59.047Z,15.05
2022-08-08T23:02:29.108Z,15.35
2022-08-08T23:04:57.820Z,15.20
2022-08-08T23:07:51.687Z,15.17
2022-08-08T23:10:19.674Z,14.91
2022-08-08T23:12:51.727Z,14.90
2022-08-08T23:16:42.040Z,15.10
2022-08-08T23:18:12.113Z,14.88
2022-08-08T23:20:44.251Z,15.09
2022-08-08T23:23:12.935Z,14.72
2022-08-08T23:25:48.435Z,14.85
2022-08-08T23:28:18.717Z,14.73
2022-08-08T23:30:47.153Z,14.58
2022-08-08T23:33:21.113Z,14.64
2022-08-08T23:36:08.503Z,14.53
2022-08-08T23:38:44.129Z,14.48
2022-08-08T23:41:24.561Z,14.83
2022-08-08T23:43:56.094Z,14.52
2022-08-08T23:49:05.462Z,14.46
2022-08-08T23:49:18.004Z,14.51
2022-08-08T23:52:04.940Z,14.33
2022-08-08T23:54:43.405Z,14.28
2022-08-08T23:57:38.742Z,14.33
